Forside
METAR-TAF:

METAR-TAF

Lufthavne :

Stevens Point Municipal Airport

Stevens Point, Wisconsin, USA

Breddekreds: 44-32-42N, længdekreds: 089-31-49W, højde: 338 m

Aktuelle vejr

Denne rapport blev lavet for 22 minutter siden, kl. 11:35 UTC
Vind 6 kt fra øst
Temperatur -2°C
Fugtighed 93%
Tryk 1022 hPa
Sigt: 16.1 km
Overskyet i en højde af 2600 ft

METAR: KSTE 241135Z AUTO 10006KT 10SM OVC026 M02/M03 A3019 RMK AO2 T10171035

Tid: 05:57 (11:57 UTC)


TAF: fraværende

Vejrobservationer og prognoser fra mere end 4000 lufthavne (METAR og TAF).

De gule og røde prikker repræsenterer de meteorologiske stationer.

Flyt musen over at se navnet på stationen.

Så klik over at se vejr observationer og prognoser.

At skifte det kort: Klik på de grønne knapper med et sort kors for at zoome ind; på den grønne knap med en bindestreg for at zoome ud; eller på de grønne pile for tilstødende kort.


METAR-TAF: